Time;durP1;ratioP1;P1;durP2;ratioP2;P2;SDS_P1;SDS_P2;PMS_P1;PMS_P2;Temp;Humidity;BMP_temperature;BMP_pressure;BME280_temperature;BME280_humidity;BME280_pressure;Samples;Min_cycle;Max_cycle;Signal;HPM_P1;HPM_P2
2023/06/07 00:00:46;;;;;;;6.10;5.50;;;18.30;72.40;;;;;;5074743;28;20444;-59
2023/06/07 00:03:14;;;;;;;8.13;4.57;;;18.30;71.90;;;;;;5074142;28;20453;-60
2023/06/07 00:05:43;;;;;;;11.87;5.03;;;18.30;72.10;;;;;;5074533;28;20442;-59
2023/06/07 00:08:10;;;;;;;7.23;4.47;;;18.30;72.30;;;;;;5074373;28;20523;-59
2023/06/07 00:10:37;;;;;;;5.97;4.93;;;18.30;72.60;;;;;;5078286;28;20948;-59
2023/06/07 00:13:04;;;;;;;6.43;4.13;;;18.30;72.80;;;;;;5075941;28;20451;-58
2023/06/07 00:15:31;;;;;;;6.43;5.10;;;18.20;73.10;;;;;;5075578;28;20471;-59
2023/06/07 00:18:00;;;;;;;6.67;4.63;;;18.20;73.20;;;;;;5074830;28;20475;-58
2023/06/07 00:20:28;;;;;;;8.53;5.00;;;18.20;73.60;;;;;;5075445;28;20454;-59
2023/06/07 00:22:56;;;;;;;6.13;5.53;;;18.20;74.00;;;;;;5075007;28;20458;-59
2023/06/07 00:25:23;;;;;;;8.67;5.10;;;18.20;74.20;;;;;;5075639;28;20471;-59
2023/06/07 00:27:50;;;;;;;7.47;5.40;;;18.20;74.50;;;;;;5078156;28;20530;-58
2023/06/07 00:30:17;;;;;;;6.83;4.83;;;18.10;74.90;;;;;;5079680;28;20469;-59
2023/06/07 00:32:44;;;;;;;6.70;4.63;;;18.10;75.70;;;;;;5079547;28;20446;-59
2023/06/07 00:35:12;;;;;;;6.33;4.57;;;18.10;75.30;;;;;;5078698;28;20463;-58
2023/06/07 00:37:40;;;;;;;5.87;4.60;;;18.10;75.70;;;;;;5078736;28;20485;-59
2023/06/07 00:40:08;;;;;;;11.10;5.80;;;18.00;76.00;;;;;;5077863;28;20443;-59
2023/06/07 00:42:35;;;;;;;7.90;4.37;;;18.00;76.30;;;;;;5078236;28;20447;-60
2023/06/07 00:45:01;;;;;;;6.23;4.57;;;18.00;76.70;;;;;;5077073;28;20474;-59
2023/06/07 00:47:29;;;;;;;9.60;5.40;;;18.00;77.10;;;;;;5077192;28;20447;-60
2023/06/07 00:49:56;;;;;;;7.07;5.37;;;17.90;77.30;;;;;;5077224;28;20810;-59
2023/06/07 00:52:23;;;;;;;7.87;5.10;;;17.90;77.70;;;;;;5076992;28;20941;-60
2023/06/07 00:54:52;;;;;;;8.07;5.30;;;17.90;78.00;;;;;;5076899;28;20470;-60
2023/06/07 00:57:18;;;;;;;6.27;5.10;;;17.90;78.30;;;;;;5077204;28;20489;-59
2023/06/07 00:59:46;;;;;;;7.77;5.30;;;17.90;78.60;;;;;;5076914;28;20450;-59
2023/06/07 01:02:14;;;;;;;6.83;5.50;;;17.90;79.10;;;;;;5077134;28;20810;-59
2023/06/07 01:04:42;;;;;;;7.90;5.30;;;17.80;79.50;;;;;;5076976;28;20471;-59
2023/06/07 01:07:09;;;;;;;7.47;5.10;;;17.80;80.00;;;;;;5077383;28;20500;-59
2023/06/07 01:09:36;;;;;;;7.27;5.30;;;17.80;80.80;;;;;;5077252;28;20941;-58
2023/06/07 01:12:07;;;;;;;8.93;5.50;;;17.80;82.00;;;;;;5076701;28;20447;-59
2023/06/07 01:14:35;;;;;;;9.90;5.70;;;17.70;84.00;;;;;;5076544;28;20471;-59
2023/06/07 01:17:03;;;;;;;7.73;5.60;;;17.70;86.00;;;;;;5076622;28;20479;-60
2023/06/07 01:19:32;;;;;;;10.90;5.70;;;17.60;87.20;;;;;;5076420;28;20497;-59
2023/06/07 01:22:04;;;;;;;12.37;6.47;;;17.50;88.70;;;;;;5076746;28;20453;-59
2023/06/07 01:24:35;;;;;;;9.67;6.30;;;17.40;89.80;;;;;;5076698;28;20463;-59
2023/06/07 01:27:03;;;;;;;10.07;5.27;;;17.40;90.50;;;;;;5076372;28;20924;-59
2023/06/07 01:29:31;;;;;;;8.37;5.33;;;17.30;90.90;;;;;;5076353;28;21014;-60
2023/06/07 01:32:01;;;;;;;8.33;5.37;;;17.20;91.30;;;;;;5076822;28;20442;-60
2023/06/07 01:34:29;;;;;;;7.30;6.00;;;17.20;91.60;;;;;;5076949;28;20489;-60
2023/06/07 01:36:56;;;;;;;11.77;5.97;;;17.10;91.90;;;;;;5076473;28;20532;-60
2023/06/07 01:39:25;;;;;;;8.97;4.93;;;17.00;92.20;;;;;;5075543;28;20454;-60
2023/06/07 01:41:54;;;;;;;8.60;6.13;;;17.00;92.70;;;;;;5077061;28;20964;-59
2023/06/07 01:44:21;;;;;;;8.13;5.53;;;16.90;93.10;;;;;;5076818;28;20463;-60
2023/06/07 01:46:48;;;;;;;11.07;5.50;;;16.80;93.50;;;;;;5076652;28;20439;-60
2023/06/07 01:49:19;;;;;;;6.30;5.37;;;16.80;93.50;;;;;;5081053;28;20470;-59
2023/06/07 01:51:46;;;;;;;10.27;5.80;;;16.80;93.70;;;;;;5076867;28;20941;-58
2023/06/07 01:54:14;;;;;;;8.13;5.57;;;16.70;93.80;;;;;;5076426;28;20467;-59
2023/06/07 01:56:48;;;;;;;7.30;5.63;;;16.70;93.80;;;;;;5076118;28;20538;-59
2023/06/07 01:59:25;;;;;;;7.83;6.40;;;16.70;93.80;;;;;;5076186;28;20948;-58
2023/06/07 02:01:59;;;;;;;7.20;5.63;;;16.70;93.90;;;;;;5076514;28;20435;-60
2023/06/07 02:04:29;;;;;;;8.20;5.23;;;16.70;93.90;;;;;;5076269;28;20475;-58
2023/06/07 02:07:02;;;;;;;7.30;4.83;;;16.70;93.90;;;;;;5076333;28;20439;-59
2023/06/07 02:09:30;;;;;;;10.73;5.40;;;16.70;94.00;;;;;;5076068;28;20463;-59
2023/06/07 02:11:57;;;;;;;9.30;5.10;;;16.60;94.00;;;;;;5075784;28;20443;-61
2023/06/07 02:14:26;;;;;;;6.97;6.17;;;16.60;94.10;;;;;;5075522;28;20865;-59
2023/06/07 02:16:52;;;;;;;10.93;5.20;;;16.60;94.30;;;;;;5075475;28;20483;-59
2023/06/07 02:19:19;;;;;;;7.63;5.83;;;16.60;94.60;;;;;;5075773;28;20439;-60
2023/06/07 02:21:46;;;;;;;9.10;5.30;;;16.50;94.70;;;;;;5075885;28;20501;-58
2023/06/07 02:24:13;;;;;;;8.00;5.00;;;16.50;94.90;;;;;;5075562;28;20477;-60
2023/06/07 02:26:42;;;;;;;6.70;5.03;;;16.40;95.10;;;;;;5075663;28;20454;-60
2023/06/07 02:29:08;;;;;;;8.07;5.40;;;16.40;95.40;;;;;;5075423;28;20827;-59
2023/06/07 02:31:37;;;;;;;7.97;4.27;;;16.30;95.50;;;;;;5075509;28;20463;-60
2023/06/07 02:34:03;;;;;;;9.60;5.63;;;16.30;95.80;;;;;;5075016;28;20482;-59
2023/06/07 02:36:33;;;;;;;11.43;6.07;;;16.20;96.00;;;;;;5075063;28;20450;-61
2023/06/07 02:38:59;;;;;;;8.37;5.20;;;16.20;96.40;;;;;;5074829;28;20969;-59
2023/06/07 02:41:26;;;;;;;8.57;5.70;;;16.20;96.30;;;;;;5074899;28;20451;-59
2023/06/07 02:43:53;;;;;;;9.57;5.90;;;16.10;96.60;;;;;;5074783;28;20554;-58
2023/06/07 02:46:20;;;;;;;8.73;6.03;;;16.10;97.00;;;;;;5074872;28;20449;-59
2023/06/07 02:48:48;;;;;;;8.00;5.70;;;16.00;97.50;;;;;;5075028;28;20497;-58
2023/06/07 02:51:15;;;;;;;14.00;5.80;;;16.00;97.90;;;;;;5074242;28;20600;-59
2023/06/07 02:53:44;;;;;;;12.10;6.10;;;15.90;98.10;;;;;;5075247;28;20497;-58
2023/06/07 02:56:12;;;;;;;9.20;6.40;;;15.90;98.20;;;;;;5074693;28;20820;-59
2023/06/07 02:58:38;;;;;;;7.60;5.97;;;15.90;98.30;;;;;;5075034;28;20483;-59
2023/06/07 03:01:07;;;;;;;8.67;6.17;;;15.90;98.40;;;;;;5074693;28;20924;-59
2023/06/07 03:03:35;;;;;;;10.70;6.37;;;15.80;98.40;;;;;;5074715;28;20467;-60
2023/06/07 03:06:04;;;;;;;8.33;6.20;;;15.80;99.00;;;;;;5074619;28;20451;-58
2023/06/07 03:08:31;;;;;;;7.13;5.60;;;15.80;98.80;;;;;;5074361;28;20470;-60
2023/06/07 03:10:57;;;;;;;7.83;6.40;;;15.80;98.90;;;;;;5074178;28;20450;-59
2023/06/07 03:13:31;;;;;;;8.63;5.53;;;15.80;98.90;;;;;;5075859;28;20435;-59
2023/06/07 03:15:58;;;;;;;9.60;6.00;;;15.70;99.00;;;;;;5075813;28;20453;-59
2023/06/07 03:18:25;;;;;;;13.73;6.50;;;15.70;99.20;;;;;;5074535;28;20842;-59
2023/06/07 03:20:52;;;;;;;8.80;6.10;;;15.70;99.30;;;;;;5074800;28;20453;-58
2023/06/07 03:23:20;;;;;;;10.47;6.47;;;15.60;99.40;;;;;;5074495;28;20443;-58
2023/06/07 03:25:47;;;;;;;11.23;6.30;;;15.60;99.70;;;;;;5080267;28;20435;-57
2023/06/07 03:28:14;;;;;;;11.93;6.83;;;15.50;99.90;;;;;;5076662;28;20955;-59
2023/06/07 03:30:42;;;;;;;8.53;6.17;;;15.50;99.90;;;;;;5074483;28;20469;-59
2023/06/07 03:33:09;;;;;;;10.17;6.20;;;15.40;99.90;;;;;;5074046;28;20483;-58
2023/06/07 03:35:36;;;;;;;9.30;6.10;;;15.40;99.90;;;;;;5073872;28;21010;-59
2023/06/07 03:38:02;;;;;;;8.33;6.10;;;15.30;99.90;;;;;;5074256;28;20479;-58
2023/06/07 03:40:31;;;;;;;8.30;5.93;;;15.30;99.90;;;;;;5074307;28;20450;-58
2023/06/07 03:42:58;;;;;;;14.87;7.20;;;15.30;99.90;;;;;;5074133;28;20448;-59
2023/06/07 03:45:25;;;;;;;7.00;6.07;;;15.30;99.90;;;;;;5074825;28;20467;-59
2023/06/07 03:47:53;;;;;;;12.00;8.33;;;15.20;99.90;;;;;;5074706;28;20446;-59
2023/06/07 03:50:20;;;;;;;8.20;6.13;;;15.20;99.90;;;;;;5074406;28;20443;-59
2023/06/07 03:52:47;;;;;;;12.70;6.57;;;15.20;99.90;;;;;;5074342;28;20443;-59
2023/06/07 03:55:14;;;;;;;11.10;7.03;;;15.10;99.90;;;;;;5074180;28;20471;-59
2023/06/07 03:57:42;;;;;;;13.43;6.87;;;15.00;99.90;;;;;;5074349;28;20479;-59
2023/06/07 04:00:11;;;;;;;10.77;6.77;;;15.00;99.90;;;;;;5074046;28;20446;-57
2023/06/07 04:02:37;;;;;;;9.50;6.40;;;14.90;99.90;;;;;;5073323;28;20451;-58
2023/06/07 04:05:05;;;;;;;16.80;7.57;;;14.90;99.90;;;;;;5074100;28;20463;-59
2023/06/07 04:07:32;;;;;;;13.20;6.70;;;14.90;99.90;;;;;;5075249;28;20445;-58
2023/06/07 04:11:48;;;;;;;8.50;6.13;;;14.90;99.90;;;;;;5111461;27;20552;-58
2023/06/07 04:14:15;;;;;;;8.97;7.10;;;14.80;99.90;;;;;;5110915;28;20560;-58
2023/06/07 04:16:42;;;;;;;9.30;7.40;;;14.80;99.90;;;;;;5111186;28;20802;-59
2023/06/07 04:19:08;;;;;;;11.10;6.93;;;14.80;99.90;;;;;;5111212;28;20445;-59
2023/06/07 04:21:35;;;;;;;11.33;7.63;;;14.80;99.90;;;;;;5110809;28;20438;-60
2023/06/07 04:24:04;;;;;;;9.07;7.03;;;14.80;99.90;;;;;;5110687;28;20530;-58
2023/06/07 04:26:31;;;;;;;9.77;6.93;;;14.80;99.90;;;;;;5110617;28;20450;-58
2023/06/07 04:28:59;;;;;;;10.90;8.37;;;14.80;99.90;;;;;;5110147;28;20532;-58
2023/06/07 04:31:29;;;;;;;12.03;7.20;;;14.80;99.90;;;;;;5110485;28;20477;-58
2023/06/07 04:33:57;;;;;;;11.37;6.97;;;14.80;99.90;;;;;;5111582;28;20560;-59
2023/06/07 04:36:25;;;;;;;16.10;7.90;;;14.80;99.90;;;;;;5110322;28;20503;-59
2023/06/07 04:38:52;;;;;;;13.27;7.10;;;14.70;99.90;;;;;;5110829;28;20537;-59
2023/06/07 04:41:19;;;;;;;11.13;6.87;;;14.70;99.90;;;;;;5110975;28;20434;-60
2023/06/07 04:43:48;;;;;;;11.30;7.47;;;14.70;99.90;;;;;;5111087;28;20488;-58
2023/06/07 04:46:18;;;;;;;14.80;7.50;;;14.70;99.90;;;;;;5111147;28;20496;-59
2023/06/07 04:48:44;;;;;;;10.40;7.00;;;14.70;99.90;;;;;;5111046;28;20446;-59
2023/06/07 04:51:13;;;;;;;11.43;8.00;;;14.70;99.90;;;;;;5110731;28;20473;-57
2023/06/07 04:53:41;;;;;;;14.70;7.60;;;14.80;99.90;;;;;;5111126;28;20473;-60
2023/06/07 04:56:09;;;;;;;14.40;7.80;;;14.70;99.90;;;;;;5111158;28;20446;-59
2023/06/07 04:58:39;;;;;;;16.40;8.13;;;14.70;99.90;;;;;;5111051;28;20947;-59
2023/06/07 05:01:05;;;;;;;12.93;7.73;;;14.70;99.90;;;;;;5111473;28;20441;-57
2023/06/07 05:03:36;;;;;;;15.80;8.20;;;14.80;99.90;;;;;;5112558;28;20999;-58
2023/06/07 05:06:04;;;;;;;10.77;8.17;;;14.80;99.90;;;;;;5111175;28;20436;-57
2023/06/07 05:08:31;;;;;;;16.13;7.30;;;14.80;99.90;;;;;;5110939;28;20453;-59
2023/06/07 05:10:57;;;;;;;10.90;7.43;;;14.70;99.90;;;;;;5109675;28;20481;-59
2023/06/07 05:13:24;;;;;;;9.90;8.70;;;14.60;99.90;;;;;;5109900;28;20456;-58
2023/06/07 05:15:52;;;;;;;16.33;9.57;;;14.50;99.90;;;;;;5092836;22;20499;-57
2023/06/07 05:18:20;;;;;;;16.93;8.60;;;14.40;99.90;;;;;;5049802;28;20487;-59
2023/06/07 05:20:48;;;;;;;12.20;8.13;;;14.30;99.90;;;;;;5049787;28;20503;-54
2023/06/07 05:23:16;;;;;;;9.57;8.43;;;14.30;99.90;;;;;;5036046;28;20812;-57
2023/06/07 05:25:44;;;;;;;12.37;8.40;;;14.30;99.90;;;;;;5036434;28;20519;-57
2023/06/07 05:28:11;;;;;;;16.40;10.40;;;14.30;99.90;;;;;;5035935;28;20456;-57
2023/06/07 05:30:37;;;;;;;12.00;8.93;;;14.40;99.90;;;;;;5035977;28;20487;-59
2023/06/07 05:33:05;;;;;;;15.60;8.73;;;14.50;99.90;;;;;;5035909;28;20449;-58
2023/06/07 05:35:32;;;;;;;17.47;8.23;;;14.50;99.90;;;;;;5036184;28;20486;-59
2023/06/07 05:38:00;;;;;;;12.40;9.50;;;14.60;99.90;;;;;;5036217;28;20484;-59
2023/06/07 05:40:27;;;;;;;12.63;8.67;;;14.50;99.90;;;;;;5035876;28;20441;-57
2023/06/07 05:42:56;;;;;;;12.53;8.10;;;14.50;99.90;;;;;;5035767;28;20441;-58
2023/06/07 05:45:23;;;;;;;14.47;7.97;;;14.50;99.90;;;;;;5035644;28;20504;-57
2023/06/07 05:47:49;;;;;;;11.57;8.57;;;14.50;99.90;;;;;;5035723;28;20475;-59
2023/06/07 05:50:19;;;;;;;18.30;8.97;;;14.50;99.90;;;;;;5035630;28;20841;-58
2023/06/07 05:52:46;;;;;;;12.20;8.43;;;14.50;99.90;;;;;;5035179;28;20449;-58
2023/06/07 05:55:14;;;;;;;13.30;8.93;;;14.50;99.90;;;;;;5035296;28;20559;-57
2023/06/07 05:57:43;;;;;;;15.33;9.23;;;14.50;99.90;;;;;;5035389;28;20452;-57
2023/06/07 06:00:11;;;;;;;14.20;9.00;;;14.50;99.90;;;;;;5036071;28;20552;-57
2023/06/07 06:02:38;;;;;;;13.83;8.27;;;14.50;99.90;;;;;;5035834;28;20953;-58
2023/06/07 06:05:06;;;;;;;16.93;9.13;;;14.50;99.90;;;;;;5036467;28;20994;-58
2023/06/07 06:07:33;;;;;;;11.93;7.90;;;14.40;99.90;;;;;;5036651;28;20445;-59
2023/06/07 06:10:00;;;;;;;16.63;9.40;;;14.30;99.90;;;;;;5036631;28;20449;-59
2023/06/07 06:12:28;;;;;;;15.77;8.50;;;14.20;99.90;;;;;;5036665;28;20441;-59
2023/06/07 06:14:55;;;;;;;15.83;9.07;;;14.10;99.90;;;;;;5035509;28;20862;-59
2023/06/07 06:17:22;;;;;;;16.10;9.37;;;14.10;99.90;;;;;;5035282;28;20490;-59
2023/06/07 06:19:49;;;;;;;12.70;10.20;;;14.00;99.90;;;;;;5037470;28;20445;-58
2023/06/07 06:22:17;;;;;;;14.27;9.80;;;14.00;99.90;;;;;;5039150;28;20461;-58
2023/06/07 06:24:44;;;;;;;13.37;9.80;;;14.10;99.90;;;;;;5039386;28;20471;-58
2023/06/07 06:27:11;;;;;;;20.20;9.53;;;14.10;99.90;;;;;;5037954;28;20966;-58
2023/06/07 06:29:39;;;;;;;16.73;9.10;;;14.10;99.90;;;;;;5036861;28;20445;-58
2023/06/07 06:32:08;;;;;;;17.90;9.93;;;14.10;99.90;;;;;;5037408;28;20484;-57
2023/06/07 06:34:34;;;;;;;13.27;9.57;;;14.10;99.90;;;;;;5035144;28;20465;-56
2023/06/07 06:37:04;;;;;;;21.93;11.07;;;14.20;99.90;;;;;;5034735;28;20453;-57
2023/06/07 06:39:31;;;;;;;14.70;9.70;;;14.10;99.90;;;;;;5035384;28;20532;-58
2023/06/07 06:41:58;;;;;;;19.00;9.43;;;14.20;99.90;;;;;;5034946;28;20516;-59
2023/06/07 06:44:24;;;;;;;12.60;9.87;;;14.10;99.90;;;;;;5034444;28;20979;-59
2023/06/07 06:46:52;;;;;;;21.20;11.07;;;14.10;99.90;;;;;;5034766;28;20797;-59
2023/06/07 06:49:19;;;;;;;13.20;10.53;;;14.20;99.90;;;;;;5034537;28;20451;-59
2023/06/07 06:51:46;;;;;;;13.30;8.87;;;14.30;99.90;;;;;;5035175;28;20504;-59
2023/06/07 06:54:13;;;;;;;16.60;10.30;;;14.40;99.90;;;;;;5034122;28;20457;-59
2023/06/07 06:56:40;;;;;;;18.60;10.33;;;14.50;99.90;;;;;;5034460;28;20515;-57
2023/06/07 06:59:07;;;;;;;17.20;9.40;;;14.50;99.90;;;;;;5035299;28;20451;-59
2023/06/07 07:01:45;;;;;;;14.73;10.27;;;14.50;99.90;;;;;;5034969;28;20455;-58
2023/06/07 07:04:14;;;;;;;18.43;10.30;;;14.50;99.90;;;;;;5034645;28;21048;-58
2023/06/07 07:06:41;;;;;;;18.43;9.80;;;14.50;99.90;;;;;;5034807;28;20452;-59
2023/06/07 07:09:09;;;;;;;13.90;9.40;;;14.50;99.90;;;;;;5034701;28;20445;-59
2023/06/07 07:11:35;;;;;;;20.10;11.90;;;14.50;99.90;;;;;;5034496;28;20993;-57
2023/06/07 07:14:03;;;;;;;17.90;9.50;;;14.60;99.90;;;;;;5034998;28;20445;-58
2023/06/07 07:16:30;;;;;;;15.13;9.90;;;14.60;99.90;;;;;;5035421;28;20437;-58
2023/06/07 07:18:57;;;;;;;14.33;9.40;;;14.70;99.90;;;;;;5035467;28;20449;-57
2023/06/07 07:21:28;;;;;;;13.00;9.07;;;14.60;99.90;;;;;;5035755;28;20939;-58
2023/06/07 07:23:55;;;;;;;16.27;8.60;;;14.60;99.90;;;;;;5035838;28;20775;-60
2023/06/07 07:26:22;;;;;;;16.23;9.50;;;14.60;99.90;;;;;;5034984;28;20959;-58
2023/06/07 07:28:48;;;;;;;16.33;10.97;;;14.60;99.90;;;;;;5035583;28;20445;-56
2023/06/07 07:31:15;;;;;;;13.90;9.40;;;14.60;99.90;;;;;;5036574;28;20487;-58
2023/06/07 07:33:42;;;;;;;14.10;10.03;;;14.60;99.90;;;;;;5036750;28;20455;-59
2023/06/07 07:36:09;;;;;;;15.80;10.27;;;14.70;99.90;;;;;;5036008;28;20884;-58
2023/06/07 07:38:37;;;;;;;18.13;10.60;;;14.70;99.90;;;;;;5036396;28;20939;-58
2023/06/07 07:41:05;;;;;;;15.27;10.03;;;14.70;99.90;;;;;;5037117;28;20499;-57
2023/06/07 07:43:32;;;;;;;15.60;9.70;;;14.80;99.90;;;;;;5038012;28;20448;-58
2023/06/07 07:45:58;;;;;;;12.10;10.20;;;15.00;99.90;;;;;;5036599;28;20469;-58
2023/06/07 07:48:25;;;;;;;13.60;9.93;;;15.00;99.90;;;;;;5035937;28;20449;-57
2023/06/07 07:50:52;;;;;;;15.43;10.00;;;15.20;99.90;;;;;;5035275;28;20495;-57
2023/06/07 07:53:19;;;;;;;18.03;10.30;;;15.20;99.90;;;;;;5035981;28;20460;-58
2023/06/07 07:55:47;;;;;;;21.80;10.53;;;15.30;99.90;;;;;;5037240;28;20477;-59
2023/06/07 07:58:14;;;;;;;17.03;10.00;;;15.30;99.90;;;;;;5038751;28;20447;-58
2023/06/07 08:00:41;;;;;;;17.33;10.13;;;15.40;99.90;;;;;;5038531;28;21001;-58
2023/06/07 08:03:09;;;;;;;13.17;9.70;;;15.40;99.90;;;;;;5037460;28;20477;-57
2023/06/07 08:05:36;;;;;;;15.73;11.70;;;15.60;99.90;;;;;;5034939;28;20469;-58
2023/06/07 08:08:03;;;;;;;16.63;9.80;;;15.70;99.90;;;;;;5035311;28;20449;-58
2023/06/07 08:10:30;;;;;;;15.37;10.10;;;15.90;99.90;;;;;;5035384;28;20483;-59
2023/06/07 08:12:58;;;;;;;18.07;9.80;;;16.10;99.90;;;;;;5035614;28;20481;-60
2023/06/07 08:15:25;;;;;;;15.43;12.10;;;16.50;99.90;;;;;;5033425;28;20491;-58
2023/06/07 08:17:52;;;;;;;13.93;10.80;;;16.80;99.90;;;;;;5034102;28;20445;-59
2023/06/07 08:20:19;;;;;;;15.40;10.27;;;17.20;99.90;;;;;;5035538;28;20539;-58
2023/06/07 08:22:50;;;;;;;14.60;9.90;;;17.60;99.90;;;;;;5036528;28;20449;-56
2023/06/07 08:25:17;;;;;;;16.23;10.47;;;18.00;99.90;;;;;;5036537;28;20540;-57
2023/06/07 08:27:44;;;;;;;18.90;11.73;;;18.30;99.90;;;;;;5035694;28;20591;-58
2023/06/07 08:30:13;;;;;;;12.80;9.60;;;18.60;99.90;;;;;;5036439;28;20560;-57
2023/06/07 08:32:41;;;;;;;12.17;9.27;;;18.90;99.90;;;;;;5035075;28;20539;-58
2023/06/07 08:35:10;;;;;;;19.63;9.90;;;19.10;99.90;;;;;;5035244;28;20457;-58
2023/06/07 08:37:37;;;;;;;15.37;8.87;;;19.30;99.90;;;;;;5034853;28;20477;-60
2023/06/07 08:40:05;;;;;;;14.77;9.20;;;19.50;99.80;;;;;;5034681;28;20453;-57
2023/06/07 08:42:33;;;;;;;13.20;10.17;;;19.70;98.70;;;;;;5033973;28;20439;-58
2023/06/07 08:45:00;;;;;;;12.63;9.13;;;19.80;97.00;;;;;;5033853;28;20557;-58
2023/06/07 08:47:29;;;;;;;11.77;8.87;;;19.80;96.10;;;;;;5034059;28;20445;-59
2023/06/07 08:49:58;;;;;;;15.47;9.53;;;19.70;95.30;;;;;;5034599;28;20545;-57
2023/06/07 08:52:25;;;;;;;12.60;9.07;;;19.70;94.30;;;;;;5033413;28;20862;-58
2023/06/07 08:54:55;;;;;;;12.63;9.43;;;19.60;94.00;;;;;;5033636;28;20465;-56
2023/06/07 08:57:22;;;;;;;14.97;10.50;;;19.50;93.90;;;;;;5035676;28;20448;-58
2023/06/07 08:59:49;;;;;;;11.27;10.00;;;19.40;93.40;;;;;;5037688;28;20548;-57
2023/06/07 09:02:17;;;;;;;13.73;10.27;;;19.30;93.30;;;;;;5037057;28;20446;-58
2023/06/07 09:04:45;;;;;;;13.77;10.07;;;19.30;93.40;;;;;;5037253;28;20469;-58
2023/06/07 09:07:12;;;;;;;12.97;8.93;;;19.30;92.80;;;;;;5037011;28;20823;-56
2023/06/07 09:09:41;;;;;;;17.30;10.00;;;19.40;92.60;;;;;;5037889;28;20557;-58
2023/06/07 09:12:08;;;;;;;16.90;10.27;;;19.40;92.70;;;;;;5036807;28;20588;-58
2023/06/07 09:14:35;;;;;;;15.00;11.37;;;19.40;92.30;;;;;;5037498;28;20481;-57
2023/06/07 09:17:02;;;;;;;14.50;10.70;;;19.50;92.20;;;;;;5037293;28;20445;-58
2023/06/07 09:19:36;;;;;;;14.60;11.50;;;19.50;91.80;;;;;;5037639;28;20544;-57
2023/06/07 09:22:06;;;;;;;19.53;11.20;;;19.60;91.70;;;;;;5037743;28;20443;-58
2023/06/07 09:24:33;;;;;;;15.47;10.63;;;19.70;91.30;;;;;;5038122;28;20466;-58
2023/06/07 09:27:02;;;;;;;17.40;10.83;;;19.70;90.80;;;;;;5037899;28;20483;-56
2023/06/07 09:29:29;;;;;;;14.90;11.53;;;19.80;90.70;;;;;;5037204;28;20484;-58
2023/06/07 09:31:59;;;;;;;13.97;9.80;;;19.80;90.30;;;;;;5036909;28;20568;-58
2023/06/07 09:34:28;;;;;;;20.37;11.30;;;20.00;90.10;;;;;;5037517;28;20477;-58
2023/06/07 09:36:57;;;;;;;16.70;11.13;;;20.20;88.50;;;;;;5037729;28;20450;-58
2023/06/07 09:39:27;;;;;;;16.10;12.07;;;20.40;87.00;;;;;;5037533;28;20818;-59
2023/06/07 09:41:54;;;;;;;17.27;10.40;;;20.70;84.70;;;;;;5037403;28;20449;-58
2023/06/07 09:44:26;;;;;;;21.43;11.77;;;20.90;83.10;;;;;;5036922;28;20470;-58
2023/06/07 09:46:53;;;;;;;18.00;10.83;;;21.00;80.40;;;;;;5037000;28;20451;-57
2023/06/07 09:49:27;;;;;;;16.63;10.53;;;21.00;80.00;;;;;;5037634;28;20451;-59
2023/06/07 09:51:54;;;;;;;12.67;10.23;;;21.10;78.70;;;;;;5037195;28;20472;-58
2023/06/07 09:54:36;;;;;;;14.90;10.90;;;21.20;76.90;;;;;;5037496;28;20472;-58
2023/06/07 09:57:04;;;;;;;15.30;11.50;;;21.20;76.20;;;;;;5037354;28;20440;-58
2023/06/07 09:59:31;;;;;;;14.90;11.43;;;21.20;75.70;;;;;;5038112;28;20462;-56
2023/06/07 10:01:58;;;;;;;14.03;10.50;;;21.20;75.40;;;;;;5038548;28;20444;-57
2023/06/07 10:04:25;;;;;;;13.03;10.53;;;21.30;75.10;;;;;;5040721;28;20482;-58
2023/06/07 10:06:54;;;;;;;16.00;10.20;;;21.50;73.50;;;;;;5040912;28;20451;-57
2023/06/07 10:09:21;;;;;;;13.93;10.00;;;21.60;72.60;;;;;;5040219;28;20502;-58
2023/06/07 10:11:54;;;;;;;13.50;10.00;;;21.80;71.10;;;;;;5040026;28;20554;-57
2023/06/07 10:14:29;;;;;;;13.37;10.53;;;21.90;70.30;;;;;;5039329;28;20477;-58
2023/06/07 10:17:01;;;;;;;15.30;10.17;;;22.10;69.30;;;;;;5038750;28;20444;-58
2023/06/07 10:19:35;;;;;;;12.70;10.33;;;22.10;68.70;;;;;;5037197;28;20509;-58
2023/06/07 10:22:03;;;;;;;13.00;9.33;;;22.20;68.10;;;;;;5036182;28;20428;-57
2023/06/07 10:24:33;;;;;;;12.73;9.60;;;22.40;67.40;;;;;;5036169;28;20986;-58
2023/06/07 10:27:11;;;;;;;13.30;10.27;;;22.50;66.50;;;;;;5035929;28;20441;-58
2023/06/07 10:29:42;;;;;;;12.93;9.80;;;22.50;65.60;;;;;;5036081;28;20445;-57
2023/06/07 10:32:14;;;;;;;12.10;10.00;;;22.40;65.10;;;;;;5035876;28;20555;-56
2023/06/07 10:34:43;;;;;;;16.83;10.97;;;22.40;65.30;;;;;;5035571;28;20495;-58
2023/06/07 10:37:13;;;;;;;11.27;9.43;;;22.50;64.90;;;;;;5035770;28;20473;-58
2023/06/07 10:39:40;;;;;;;12.77;9.47;;;22.60;64.60;;;;;;5035396;28;20532;-57
2023/06/07 10:42:09;;;;;;;13.33;10.30;;;22.80;64.20;;;;;;5035637;28;20454;-58
2023/06/07 10:44:38;;;;;;;12.37;10.07;;;23.20;63.10;;;;;;5036001;28;20462;-58
2023/06/07 10:47:27;;;;;;;12.07;10.30;;;23.40;62.10;;;;;;5035921;28;20455;-58
2023/06/07 10:49:54;;;;;;;13.60;10.47;;;23.60;60.90;;;;;;5036541;28;20457;-59
2023/06/07 10:52:22;;;;;;;12.83;9.43;;;23.70;60.00;;;;;;5036023;28;21029;-57
2023/06/07 10:54:49;;;;;;;10.93;9.30;;;23.90;59.70;;;;;;5037418;28;20473;-57
2023/06/07 10:57:32;;;;;;;11.33;10.17;;;24.10;58.70;;;;;;5038076;28;20941;-58
2023/06/07 11:00:28;;;;;;;11.73;9.70;;;24.20;57.90;;;;;;5039911;28;20428;-58
2023/06/07 11:03:31;;;;;;;13.90;10.20;;;24.40;57.80;;;;;;5038406;28;20789;-56
2023/06/07 11:06:06;;;;;;;15.10;11.20;;;24.50;57.10;;;;;;5036995;28;20468;-58
2023/06/07 11:08:33;;;;;;;13.50;10.80;;;24.80;56.50;;;;;;5036631;28;20938;-59
2023/06/07 11:11:01;;;;;;;12.87;9.80;;;25.00;55.80;;;;;;5036566;28;20488;-58
2023/06/07 11:14:08;;;;;;;12.73;8.90;;;25.00;55.80;;;;;;5035650;28;20492;-58
2023/06/07 11:16:36;;;;;;;11.70;9.60;;;24.80;55.70;;;;;;5035605;28;20426;-58
2023/06/07 11:19:05;;;;;;;10.53;9.43;;;24.70;55.40;;;;;;5059403;22;20583;-60
2023/06/07 11:22:04;;;;;;;10.47;8.97;;;24.80;55.30;;;;;;5035603;28;20445;-60
2023/06/07 11:24:33;;;;;;;13.37;10.10;;;24.90;55.00;;;;;;5035095;28;20441;-61
2023/06/07 11:27:00;;;;;;;13.17;10.00;;;25.00;54.80;;;;;;5033926;28;20445;-62
2023/06/07 11:29:30;;;;;;;10.73;9.53;;;25.00;54.60;;;;;;5033597;28;20466;-61
2023/06/07 11:32:00;;;;;;;10.40;8.80;;;24.90;54.90;;;;;;5034319;28;20448;-63
2023/06/07 11:34:31;;;;;;;9.50;8.43;;;24.90;55.10;;;;;;5035126;28;20458;-61
2023/06/07 11:37:13;;;;;;;13.20;9.07;;;24.90;54.80;;;;;;5034498;28;20436;-61
2023/06/07 11:39:40;;;;;;;9.43;8.33;;;24.70;54.80;;;;;;5033449;28;20489;-61
2023/06/07 11:42:07;;;;;;;10.03;8.07;;;24.50;54.90;;;;;;5032998;28;20442;-62
2023/06/07 11:44:36;;;;;;;11.07;8.83;;;24.70;54.70;;;;;;5033333;28;20451;-62
2023/06/07 11:47:05;;;;;;;11.70;9.23;;;24.90;54.80;;;;;;5033333;28;20450;-61
2023/06/07 11:49:33;;;;;;;11.07;9.60;;;25.20;53.70;;;;;;5033405;28;20462;-61
2023/06/07 11:52:00;;;;;;;10.07;9.07;;;25.30;53.50;;;;;;5033015;28;20447;-61
2023/06/07 11:54:27;;;;;;;11.70;9.47;;;25.20;53.50;;;;;;5033040;28;20464;-61
2023/06/07 11:56:54;;;;;;;14.37;8.73;;;25.10;53.60;;;;;;5032792;28;20446;-60
2023/06/07 11:59:23;;;;;;;12.30;9.60;;;25.20;53.40;;;;;;5038939;28;20474;-59
2023/06/07 12:04:51;;;;;;;11.03;8.20;;;25.40;53.00;;;;;;5030845;28;20456;-61
2023/06/07 12:07:19;;;;;;;9.33;7.57;;;25.60;52.60;;;;;;5032801;28;20452;-61
2023/06/07 12:09:49;;;;;;;10.47;8.03;;;25.90;51.80;;;;;;5032664;28;20538;-63
2023/06/07 12:12:16;;;;;;;9.80;7.50;;;26.20;51.20;;;;;;5032351;28;20475;-61
2023/06/07 12:14:46;;;;;;;8.23;7.07;;;26.40;50.50;;;;;;5032896;28;20535;-61
2023/06/07 12:17:14;;;;;;;11.40;7.90;;;26.40;50.30;;;;;;5033008;28;20471;-61
2023/06/07 12:19:41;;;;;;;10.00;7.30;;;26.30;50.00;;;;;;5033415;28;20478;-60
2023/06/07 12:22:08;;;;;;;11.83;6.63;;;26.20;49.80;;;;;;5039997;28;20453;-61
2023/06/07 12:24:39;;;;;;;9.90;8.90;;;26.20;49.00;;;;;;5032522;28;20459;-62
2023/06/07 12:27:11;;;;;;;10.03;8.37;;;26.20;48.90;;;;;;5032186;28;20926;-61
2023/06/07 12:29:39;;;;;;;10.57;7.67;;;26.10;49.40;;;;;;5032154;28;20472;-61
2023/06/07 12:32:07;;;;;;;8.73;6.40;;;26.00;49.70;;;;;;5035926;28;20450;-61
2023/06/07 12:34:42;;;;;;;8.80;5.50;;;25.90;49.60;;;;;;5036772;28;20443;-60
2023/06/07 12:37:10;;;;;;;7.57;5.23;;;26.00;49.10;;;;;;5036750;28;20428;-62
2023/06/07 12:39:37;;;;;;;6.30;5.37;;;26.10;48.10;;;;;;5042088;28;20460;-60
2023/06/07 12:42:06;;;;;;;4.90;4.40;;;26.30;47.50;;;;;;5036766;28;20456;-61
2023/06/07 12:44:33;;;;;;;6.07;5.10;;;26.40;46.80;;;;;;5036698;28;20444;-61
2023/06/07 12:47:00;;;;;;;5.17;4.67;;;26.50;46.30;;;;;;5037134;28;20808;-62
2023/06/07 12:49:27;;;;;;;6.73;5.17;;;26.50;45.90;;;;;;5036393;28;20506;-62